Time;durP1;ratioP1;P1;durP2;ratioP2;P2;SDS_P1;SDS_P2;PMS_P1;PMS_P2;Temp;Humidity;BMP_temperature;BMP_pressure;BME280_temperature;BME280_humidity;BME280_pressure;Samples;Min_cycle;Max_cycle;Signal;HPM_P1;HPM_P2
2022/09/12 00:01:59;;;;;;;;;;;17.60;91.80;;;;;;5062958;28;19936;-81
2022/09/12 00:04:25;;;;;;;;;;;17.60;92.30;;;;;;5055774;28;20420;-81
2022/09/12 00:06:51;;;;;;;;;;;17.70;92.30;;;;;;5055939;28;19920;-81
2022/09/12 00:09:17;;;;;;;;;;;17.60;92.10;;;;;;5084340;27;19930;-82
2022/09/12 00:11:44;;;;;;;;;;;17.60;92.20;;;;;;5057488;28;19956;-81
2022/09/12 00:14:11;;;;;;;;;;;17.50;92.80;;;;;;5051998;28;19920;-81
2022/09/12 00:16:37;;;;;;;;;;;17.40;92.80;;;;;;5055505;28;19999;-82
2022/09/12 00:19:03;;;;;;;;;;;17.50;92.90;;;;;;5055705;28;19920;-81
2022/09/12 00:21:28;;;;;;;;;;;17.40;93.10;;;;;;5064856;28;19916;-80
2022/09/12 00:23:54;;;;;;;;;;;17.40;93.20;;;;;;5053887;28;19983;-80
2022/09/12 00:26:20;;;;;;;;;;;17.30;93.70;;;;;;5050618;28;19917;-81
2022/09/12 00:28:46;;;;;;;;;;;17.30;93.60;;;;;;5051770;28;19921;-81
2022/09/12 00:31:13;;;;;;;;;;;17.20;94.20;;;;;;5051409;28;19917;-81
2022/09/12 00:33:39;;;;;;;;;;;17.20;94.10;;;;;;5050082;28;20039;-81
2022/09/12 00:36:06;;;;;;;;;;;17.30;93.80;;;;;;5050780;28;20039;-81
2022/09/12 00:38:32;;;;;;;;;;;17.30;94.00;;;;;;5054230;28;19916;-80
2022/09/12 00:40:57;;;;;;;;;;;17.30;93.90;;;;;;5050827;28;20072;-81
2022/09/12 00:43:29;;;;;;;;;;;17.30;94.00;;;;;;5048342;28;20373;-80
2022/09/12 00:45:56;;;;;;;;;;;17.10;94.60;;;;;;5050159;28;19959;-81
2022/09/12 00:48:25;;;;;;;;;;;17.10;94.80;;;;;;5048813;28;19923;-81
2022/09/12 00:50:51;;;;;;;;;;;17.10;95.00;;;;;;5061581;28;20475;-81
2022/09/12 00:53:16;;;;;;;;;;;17.10;95.00;;;;;;5061340;28;19916;-81
2022/09/12 00:55:45;;;;;;;;;;;17.00;95.00;;;;;;5053175;28;19916;-81
2022/09/12 00:58:13;;;;;;;;;;;17.00;95.30;;;;;;5055702;28;19916;-81
2022/09/12 01:00:38;;;;;;;;;;;16.90;95.50;;;;;;5053309;28;19932;-81
2022/09/12 01:03:06;;;;;;;;;;;16.90;95.80;;;;;;5056617;28;19916;-81
2022/09/12 01:05:37;;;;;;;;;;;16.90;96.00;;;;;;5061639;28;20456;-80
2022/09/12 01:08:04;;;;;;;;;;;16.90;95.70;;;;;;5050012;28;19917;-81
2022/09/12 01:10:30;;;;;;;;;;;16.90;95.70;;;;;;5085880;27;19920;-82
2022/09/12 01:12:56;;;;;;;;;;;16.90;95.70;;;;;;5059715;28;19923;-80
2022/09/12 01:15:21;;;;;;;;;;;17.00;95.70;;;;;;5051633;28;19920;-81
2022/09/12 01:18:10;;;;;;;;;;;16.90;95.80;;;;;;5056697;28;19958;-81
2022/09/12 01:20:41;;;;;;;;;;;16.90;96.10;;;;;;5027852;28;19920;-80
2022/09/12 01:23:19;;;;;;;;;;;16.80;96.10;;;;;;5026564;28;20022;-81
2022/09/12 01:25:54;;;;;;;;;;;16.80;96.50;;;;;;5024265;28;19952;-80
2022/09/12 01:28:22;;;;;;;;;;;16.80;96.50;;;;;;5024448;28;19955;-80
2022/09/12 01:31:06;;;;;;;;;;;16.70;96.70;;;;;;5023768;28;19913;-80
2022/09/12 01:33:35;;;;;;;;;;;16.70;97.10;;;;;;5024866;28;20043;-81
2022/09/12 01:36:03;;;;;;;;;;;16.70;97.40;;;;;;5024872;28;19963;-80
2022/09/12 01:38:29;;;;;;;;;;;16.70;97.40;;;;;;5025028;28;19975;-81
2022/09/12 01:40:54;;;;;;;;;;;16.70;97.40;;;;;;5025787;28;19917;-81
2022/09/12 01:43:20;;;;;;;;;;;16.70;97.30;;;;;;5024660;28;19925;-81
2022/09/12 01:45:45;;;;;;;;;;;16.60;97.90;;;;;;5024760;28;20279;-81
2022/09/12 01:48:18;;;;;;;;;;;16.70;97.70;;;;;;5026166;28;20015;-81
2022/09/12 01:50:51;;;;;;;;;;;16.70;97.80;;;;;;5025847;28;19952;-80
2022/09/12 01:53:26;;;;;;;;;;;16.60;98.00;;;;;;5022803;28;19921;-80
2022/09/12 01:55:55;;;;;;;;;;;16.60;98.30;;;;;;5026327;28;20004;-81
2022/09/12 01:58:24;;;;;;;;;;;16.50;98.40;;;;;;5046672;28;19931;-81
2022/09/12 02:01:02;;;;;;;;;;;16.60;98.30;;;;;;5061873;28;19928;-80
2022/09/12 02:03:33;;;;;;;;;;;16.60;98.60;;;;;;5059479;28;20305;-80
2022/09/12 02:06:02;;;;;;;;;;;16.50;98.90;;;;;;5053090;28;19931;-81
2022/09/12 02:08:31;;;;;;;;;;;16.30;99.40;;;;;;5051700;28;20414;-81
2022/09/12 02:11:02;;;;;;;;;;;16.30;99.30;;;;;;5054372;28;19931;-81
2022/09/12 02:13:31;;;;;;;;;;;16.40;99.40;;;;;;5061081;28;19921;-82
2022/09/12 02:16:03;;;;;;;;;;;16.20;99.90;;;;;;5053676;28;19917;-81
2022/09/12 02:18:30;;;;;;;;;;;16.30;99.90;;;;;;5049424;28;20030;-80
2022/09/12 02:20:56;;;;;;;;;;;16.30;99.90;;;;;;5059922;28;19964;-80
2022/09/12 02:23:25;;;;;;;;;;;16.20;99.90;;;;;;5054570;28;20610;-81
2022/09/12 02:25:52;;;;;;;;;;;16.10;99.90;;;;;;5054752;28;20185;-80
2022/09/12 02:28:24;;;;;;;;;;;16.10;99.90;;;;;;5054098;28;19924;-81
2022/09/12 02:30:55;;;;;;;;;;;16.20;99.90;;;;;;5055188;28;19975;-80
2022/09/12 02:33:43;;;;;;;;;;;16.10;99.90;;;;;;5051877;28;20627;-82
2022/09/12 02:36:10;;;;;;;;;;;16.10;99.90;;;;;;5051214;28;19956;-81
2022/09/12 02:38:39;;;;;;;;;;;16.30;99.90;;;;;;5054318;28;19931;-81
2022/09/12 02:41:06;;;;;;;;;;;16.30;99.90;;;;;;5054149;28;19917;-81
2022/09/12 02:43:31;;;;;;;;;;;16.20;99.90;;;;;;5091166;27;20703;-81
2022/09/12 02:45:57;;;;;;;;;;;16.20;99.90;;;;;;5062912;28;19917;-80
2022/09/12 02:48:28;;;;;;;;;;;16.20;99.90;;;;;;5057726;28;19967;-80
2022/09/12 02:50:54;;;;;;;;;;;16.10;99.90;;;;;;5062164;28;20686;-81
2022/09/12 02:53:20;;;;;;;;;;;16.10;99.90;;;;;;5059606;28;20692;-79
2022/09/12 02:55:46;;;;;;;;;;;16.00;99.90;;;;;;5050825;28;19950;-81
2022/09/12 02:58:14;;;;;;;;;;;15.90;99.90;;;;;;5057304;28;19921;-81
2022/09/12 03:00:45;;;;;;;;;;;15.90;99.90;;;;;;5057032;28;20030;-81
2022/09/12 03:03:35;;;;;;;;;;;15.90;99.90;;;;;;5053557;28;19924;-80
2022/09/12 03:06:27;;;;;;;;;;;15.80;99.90;;;;;;5097531;27;19920;-81
2022/09/12 03:08:59;;;;;;;;;;;15.90;99.90;;;;;;5055127;28;19921;-80
2022/09/12 03:11:39;;;;;;;;;;;15.80;99.90;;;;;;5060720;28;20035;-80
2022/09/12 03:14:08;;;;;;;;;;;15.80;99.90;;;;;;5057456;28;20223;-81
2022/09/12 03:16:36;;;;;;;;;;;15.90;99.90;;;;;;5059090;28;19985;-82
2022/09/12 03:19:01;;;;;;;;;;;15.90;99.90;;;;;;5056236;28;20012;-81
2022/09/12 03:21:27;;;;;;;;;;;15.90;99.90;;;;;;5058818;28;20000;-81
2022/09/12 03:23:55;;;;;;;;;;;15.80;99.90;;;;;;5055654;28;19924;-81
2022/09/12 03:26:39;;;;;;;;;;;15.80;99.90;;;;;;5055165;28;19920;-80
2022/09/12 03:29:06;;;;;;;;;;;15.90;99.90;;;;;;5054625;28;20427;-80
2022/09/12 03:31:31;;;;;;;;;;;15.80;99.90;;;;;;5054968;28;20325;-80
2022/09/12 03:33:58;;;;;;;;;;;15.80;99.90;;;;;;5055616;28;20492;-80
2022/09/12 03:36:26;;;;;;;;;;;15.70;99.90;;;;;;5059250;28;20014;-80
2022/09/12 03:38:51;;;;;;;;;;;15.80;99.90;;;;;;5058709;28;19916;-81
2022/09/12 03:41:17;;;;;;;;;;;15.80;99.90;;;;;;5057970;28;20393;-82
2022/09/12 03:43:43;;;;;;;;;;;15.70;99.90;;;;;;5049717;28;22071;-80
2022/09/12 03:46:08;;;;;;;;;;;15.70;99.90;;;;;;5056096;28;19920;-81
2022/09/12 03:48:34;;;;;;;;;;;15.70;99.90;;;;;;5056352;28;20418;-81
2022/09/12 03:51:00;;;;;;;;;;;15.60;99.90;;;;;;5056300;28;20717;-81
2022/09/12 03:53:26;;;;;;;;;;;15.60;99.90;;;;;;5063764;28;19916;-81
2022/09/12 03:55:51;;;;;;;;;;;15.60;99.90;;;;;;5052207;28;19923;-80
2022/09/12 03:58:17;;;;;;;;;;;15.60;99.90;;;;;;5049364;28;20389;-81
2022/09/12 04:00:43;;;;;;;;;;;15.60;99.90;;;;;;5058311;28;19924;-82
2022/09/12 04:03:08;;;;;;;;;;;15.60;99.90;;;;;;5050089;28;19927;-80
2022/09/12 04:05:34;;;;;;;;;;;15.50;99.90;;;;;;5060107;28;19921;-80
2022/09/12 04:08:00;;;;;;;;;;;15.40;99.90;;;;;;5053746;28;20401;-81
2022/09/12 04:10:25;;;;;;;;;;;15.40;99.90;;;;;;5052677;28;20031;-81
2022/09/12 04:12:51;;;;;;;;;;;15.40;99.90;;;;;;5057112;28;19924;-81
2022/09/12 04:15:16;;;;;;;;;;;15.30;99.90;;;;;;5086099;27;19978;-81
2022/09/12 04:17:42;;;;;;;;;;;15.40;99.90;;;;;;5053580;28;20488;-79
2022/09/12 04:20:07;;;;;;;;;;;15.40;99.90;;;;;;5059782;28;19921;-81
2022/09/12 04:22:33;;;;;;;;;;;15.50;99.90;;;;;;5060978;28;19927;-81
2022/09/12 04:24:58;;;;;;;;;;;15.40;99.90;;;;;;5059386;28;19924;-80
2022/09/12 04:27:24;;;;;;;;;;;15.40;99.90;;;;;;5052589;28;19927;-81
2022/09/12 04:29:49;;;;;;;;;;;15.40;99.90;;;;;;5052741;28;19921;-80
2022/09/12 04:32:15;;;;;;;;;;;15.50;99.90;;;;;;5052618;28;20397;-81
2022/09/12 04:34:40;;;;;;;;;;;15.50;99.90;;;;;;5052891;28;20004;-81
2022/09/12 04:37:06;;;;;;;;;;;15.40;99.90;;;;;;5055162;28;19916;-81
2022/09/12 04:39:31;;;;;;;;;;;15.50;99.90;;;;;;5054500;28;19917;-79
2022/09/12 04:41:57;;;;;;;;;;;15.50;99.90;;;;;;5058365;28;19916;-80
2022/09/12 04:44:22;;;;;;;;;;;15.40;99.90;;;;;;5050747;28;19924;-80
2022/09/12 04:46:48;;;;;;;;;;;15.40;99.90;;;;;;5082450;27;19956;-81
2022/09/12 04:49:15;;;;;;;;;;;15.40;99.90;;;;;;5051995;28;19915;-79
2022/09/12 04:51:41;;;;;;;;;;;15.40;99.90;;;;;;5066544;28;19955;-80
2022/09/12 04:54:09;;;;;;;;;;;15.30;99.90;;;;;;5056251;28;19943;-80
2022/09/12 04:56:42;;;;;;;;;;;15.30;99.90;;;;;;5056489;28;20709;-80
2022/09/12 04:59:08;;;;;;;;;;;15.30;99.90;;;;;;5054712;28;19912;-81
2022/09/12 05:01:34;;;;;;;;;;;15.20;99.90;;;;;;5047773;28;19925;-83
2022/09/12 05:04:01;;;;;;;;;;;15.20;99.90;;;;;;5053942;28;19924;-81
2022/09/12 05:06:27;;;;;;;;;;;15.20;99.90;;;;;;5049404;28;19947;-81
2022/09/12 05:08:54;;;;;;;;;;;15.20;99.90;;;;;;5081173;27;20594;-80
2022/09/12 05:11:21;;;;;;;;;;;15.20;99.90;;;;;;5055960;28;19920;-80
2022/09/12 05:13:47;;;;;;;;;;;15.10;99.90;;;;;;5051984;28;19916;-81
2022/09/12 05:16:14;;;;;;;;;;;15.20;99.90;;;;;;5049441;28;20663;-80
2022/09/12 05:18:40;;;;;;;;;;;15.20;99.90;;;;;;5055918;28;19917;-79
2022/09/12 05:21:06;;;;;;;;;;;15.20;99.90;;;;;;5060040;28;19923;-80
2022/09/12 05:23:32;;;;;;;;;;;15.20;99.90;;;;;;5059946;28;19920;-81
2022/09/12 05:25:58;;;;;;;;;;;15.20;99.90;;;;;;5062715;28;19920;-79
2022/09/12 05:28:25;;;;;;;;;;;15.20;99.90;;;;;;5066314;28;19921;-81
2022/09/12 05:31:04;;;;;;;;;;;15.20;99.90;;;;;;5095127;28;19916;-81
2022/09/12 05:33:30;;;;;;;;;;;15.30;99.90;;;;;;5060462;28;19913;-79
2022/09/12 05:35:55;;;;;;;;;;;15.10;99.90;;;;;;5063337;28;20490;-79
2022/09/12 05:38:23;;;;;;;;;;;15.10;99.90;;;;;;5066150;28;19916;-79
2022/09/12 05:40:49;;;;;;;;;;;15.20;99.90;;;;;;5079419;28;19950;-79
2022/09/12 05:43:15;;;;;;;;;;;15.30;99.90;;;;;;5068162;28;19986;-80
2022/09/12 05:45:40;;;;;;;;;;;15.60;99.90;;;;;;5063054;28;19920;-80
2022/09/12 05:48:06;;;;;;;;;;;16.10;99.90;;;;;;5064190;28;20506;-79
2022/09/12 05:50:32;;;;;;;;;;;16.60;99.90;;;;;;5063608;28;19958;-82
2022/09/12 05:52:57;;;;;;;;;;;16.90;99.90;;;;;;5063498;28;19913;-81
2022/09/12 05:55:23;;;;;;;;;;;17.10;99.90;;;;;;5061180;28;19952;-85
2022/09/12 05:57:49;;;;;;;;;;;17.20;99.90;;;;;;5043919;28;19917;-84
2022/09/12 06:00:14;;;;;;;;;;;17.20;99.90;;;;;;5043619;28;19925;-84
2022/09/12 06:02:40;;;;;;;;;;;17.30;99.90;;;;;;5093263;28;19916;-84
2022/09/12 06:05:06;;;;;;;;;;;17.60;99.90;;;;;;5063841;28;20377;-84
2022/09/12 06:07:31;;;;;;;;;;;17.10;99.90;;;;;;5063690;28;19924;-84
2022/09/12 06:09:58;;;;;;;;;;;17.70;99.90;;;;;;5063902;28;19958;-83
2022/09/12 06:12:29;;;;;;;;;;;17.30;99.90;;;;;;5063494;28;19934;-84
2022/09/12 06:14:55;;;;;;;;;;;17.40;99.90;;;;;;5062817;28;19908;-80
2022/09/12 06:17:21;;;;;;;;;;;18.70;98.20;;;;;;5078634;28;19965;-80
2022/09/12 06:19:49;;;;;;;;;;;19.30;97.10;;;;;;5087274;28;19922;-81
2022/09/12 06:22:15;;;;;;;;;;;19.60;96.20;;;;;;5087656;28;20539;-80
2022/09/12 06:24:40;;;;;;;;;;;19.70;96.10;;;;;;5087322;28;20019;-80
2022/09/12 06:27:06;;;;;;;;;;;19.80;95.60;;;;;;5087216;28;19919;-80
2022/09/12 06:29:31;;;;;;;;;;;20.10;95.00;;;;;;5083101;28;19919;-81
2022/09/12 06:31:57;;;;;;;;;;;20.00;94.90;;;;;;5082259;28;19963;-81
2022/09/12 06:34:23;;;;;;;;;;;20.20;94.20;;;;;;5087618;28;20026;-80
2022/09/12 06:36:48;;;;;;;;;;;20.40;93.90;;;;;;5087080;28;19912;-81
2022/09/12 06:39:15;;;;;;;;;;;20.60;93.60;;;;;;5086344;28;19909;-81
2022/09/12 06:41:41;;;;;;;;;;;20.00;94.20;;;;;;5082166;28;19916;-81
2022/09/12 06:44:07;;;;;;;;;;;19.20;96.00;;;;;;5086304;28;19938;-81
2022/09/12 06:46:32;;;;;;;;;;;19.40;95.60;;;;;;5082687;28;19919;-81
2022/09/12 06:48:59;;;;;;;;;;;20.20;94.20;;;;;;5078597;28;19932;-81
2022/09/12 06:51:25;;;;;;;;;;;20.60;93.60;;;;;;5083252;28;19912;-82
2022/09/12 06:53:53;;;;;;;;;;;20.90;93.00;;;;;;5087100;28;19935;-81
2022/09/12 06:56:20;;;;;;;;;;;21.30;92.80;;;;;;5082623;28;20180;-81
2022/09/12 06:58:46;;;;;;;;;;;21.60;92.40;;;;;;5081274;28;20327;-81
2022/09/12 07:01:16;;;;;;;;;;;22.00;90.60;;;;;;5086766;28;20460;-81
2022/09/12 07:03:42;;;;;;;;;;;22.10;91.00;;;;;;5078280;28;20736;-81
2022/09/12 07:06:11;;;;;;;;;;;22.20;90.30;;;;;;5087133;28;19925;-80
2022/09/12 07:08:38;;;;;;;;;;;22.80;90.20;;;;;;5086735;28;19974;-82
2022/09/12 07:11:22;;;;;;;;;;;22.50;88.90;;;;;;5086424;28;20702;-82
2022/09/12 07:13:49;;;;;;;;;;;22.60;88.50;;;;;;5086734;28;19931;-82
2022/09/12 07:16:15;;;;;;;;;;;22.70;87.50;;;;;;5071967;28;19905;-81
2022/09/12 07:18:41;;;;;;;;;;;22.70;87.40;;;;;;5066875;28;20025;-82
2022/09/12 07:21:08;;;;;;;;;;;22.70;88.50;;;;;;5066530;28;20452;-81
2022/09/12 07:23:34;;;;;;;;;;;23.20;87.20;;;;;;5070178;28;19921;-82
2022/09/12 07:26:00;;;;;;;;;;;23.20;86.40;;;;;;5065084;28;19936;-82
2022/09/12 07:28:27;;;;;;;;;;;23.10;86.80;;;;;;5065550;28;19919;-82
2022/09/12 07:30:52;;;;;;;;;;;23.60;85.30;;;;;;5066354;28;19920;-82
2022/09/12 07:33:27;;;;;;;;;;;23.70;85.40;;;;;;5066825;28;19921;-81
2022/09/12 07:35:53;;;;;;;;;;;24.10;84.20;;;;;;5085390;28;19912;-82
2022/09/12 07:38:22;;;;;;;;;;;24.00;84.90;;;;;;5083439;28;19943;-80
2022/09/12 07:40:48;;;;;;;;;;;24.30;82.30;;;;;;5070785;28;21744;-83
2022/09/12 07:43:13;;;;;;;;;;;24.40;81.40;;;;;;5045793;28;19925;-83
2022/09/12 07:45:42;;;;;;;;;;;24.50;82.10;;;;;;5064717;28;19978;-83
2022/09/12 07:48:08;;;;;;;;;;;25.00;80.80;;;;;;5065480;28;19938;-83
2022/09/12 07:50:35;;;;;;;;;;;24.90;79.50;;;;;;5065254;28;19963;-84
2022/09/12 07:53:02;;;;;;;;;;;25.10;80.90;;;;;;5065298;28;19923;-84
2022/09/12 07:55:28;;;;;;;;;;;25.20;78.80;;;;;;5046943;28;19916;-83
2022/09/12 07:57:54;;;;;;;;;;;25.60;78.00;;;;;;5065428;28;19912;-85
2022/09/12 08:00:20;;;;;;;;;;;25.70;78.30;;;;;;5065025;28;19932;-84
2022/09/12 08:02:49;;;;;;;;;;;26.00;77.00;;;;;;5053823;28;19920;-84
2022/09/12 08:05:15;;;;;;;;;;;26.40;76.50;;;;;;5045378;28;19921;-84
2022/09/12 08:07:40;;;;;;;;;;;26.60;73.90;;;;;;5044851;28;19949;-85
2022/09/12 08:10:06;;;;;;;;;;;26.60;76.10;;;;;;5045084;28;20524;-84
2022/09/12 08:12:33;;;;;;;;;;;27.10;74.00;;;;;;5044531;28;20589;-85
2022/09/12 08:14:59;;;;;;;;;;;27.30;74.10;;;;;;5044969;28;20352;-84
2022/09/12 08:17:24;;;;;;;;;;;27.10;72.00;;;;;;5044715;28;19935;-84
2022/09/12 08:19:51;;;;;;;;;;;27.20;71.70;;;;;;5045255;28;19920;-84
2022/09/12 08:22:20;;;;;;;;;;;27.90;71.70;;;;;;5044946;28;19920;-84
2022/09/12 08:24:46;;;;;;;;;;;28.00;70.50;;;;;;5044636;28;19924;-84
2022/09/12 08:27:13;;;;;;;;;;;28.30;69.40;;;;;;5045085;28;19913;-84
2022/09/12 08:29:39;;;;;;;;;;;28.40;69.30;;;;;;5027049;28;19987;-84
2022/09/12 08:32:04;;;;;;;;;;;28.30;69.40;;;;;;5044995;28;19945;-85
2022/09/12 08:34:30;;;;;;;;;;;28.50;70.50;;;;;;5044347;28;19939;-84
2022/09/12 08:36:56;;;;;;;;;;;29.00;68.80;;;;;;5044814;28;19948;-84
2022/09/12 08:39:23;;;;;;;;;;;29.40;69.40;;;;;;5043430;28;20539;-85
2022/09/12 08:41:56;;;;;;;;;;;29.20;67.00;;;;;;5044036;28;19924;-85
2022/09/12 08:44:25;;;;;;;;;;;29.90;67.60;;;;;;5044651;28;19927;-84
2022/09/12 08:47:10;;;;;;;;;;;29.60;68.50;;;;;;5027269;28;19913;-85
2022/09/12 08:49:43;;;;;;;;;;;30.20;64.70;;;;;;5045055;28;20481;-85
2022/09/12 08:52:14;;;;;;;;;;;30.10;66.90;;;;;;5044851;28;19917;-85
2022/09/12 08:54:41;;;;;;;;;;;30.00;65.50;;;;;;5044589;28;20469;-85
2022/09/12 08:57:10;;;;;;;;;;;30.30;65.00;;;;;;5044606;28;20487;-85
2022/09/12 08:59:37;;;;;;;;;;;31.50;63.50;;;;;;5053620;28;19947;-85
2022/09/12 09:02:08;;;;;;;;;;;31.50;63.30;;;;;;5064026;28;20426;-85
2022/09/12 09:04:42;;;;;;;;;;;31.60;64.00;;;;;;5064542;28;19920;-85
2022/09/12 09:07:27;;;;;;;;;;;31.50;63.90;;;;;;5064145;28;20476;-84
2022/09/12 09:10:02;;;;;;;;;;;31.70;63.90;;;;;;5064580;28;19946;-84
2022/09/12 09:12:31;;;;;;;;;;;32.00;62.00;;;;;;5064543;28;19912;-85
2022/09/12 09:15:11;;;;;;;;;;;31.70;62.00;;;;;;5064493;28;20206;-85
2022/09/12 09:17:37;;;;;;;;;;;31.90;60.80;;;;;;5064623;28;19912;-86
2022/09/12 09:20:06;;;;;;;;;;;31.70;61.50;;;;;;5064343;28;19974;-84
2022/09/12 09:22:48;;;;;;;;;;;32.00;59.70;;;;;;5061937;28;19912;-85
2022/09/12 09:25:16;;;;;;;;;;;32.40;61.60;;;;;;5064083;28;20357;-85
2022/09/12 09:27:45;;;;;;;;;;;32.50;60.00;;;;;;5064378;28;19999;-85
2022/09/12 09:30:15;;;;;;;;;;;32.80;59.40;;;;;;5063959;28;19919;-85
2022/09/12 09:32:41;;;;;;;;;;;33.20;61.20;;;;;;5063790;28;20721;-85
2022/09/12 09:35:17;;;;;;;;;;;33.30;58.90;;;;;;5063940;28;19912;-84
2022/09/12 09:37:52;;;;;;;;;;;34.00;60.10;;;;;;5063708;28;19909;-86
2022/09/12 09:40:26;;;;;;;;;;;34.20;61.20;;;;;;5062427;28;19912;-85
2022/09/12 09:42:55;;;;;;;;;;;34.80;62.10;;;;;;5063643;28;20397;-85
2022/09/12 09:45:28;;;;;;;;;;;33.70;59.40;;;;;;5063984;28;19964;-85
2022/09/12 09:47:56;;;;;;;;;;;33.80;59.70;;;;;;5063384;28;19913;-85
2022/09/12 09:50:23;;;;;;;;;;;33.30;59.70;;;;;;5063011;28;19966;-85
2022/09/12 09:52:50;;;;;;;;;;;32.40;60.30;;;;;;5074921;28;20780;-86
2022/09/12 09:55:19;;;;;;;;;;;31.50;61.10;;;;;;5076865;28;19920;-86
2022/09/12 09:57:45;;;;;;;;;;;31.20;62.30;;;;;;5081957;28;19927;-86
2022/09/12 10:00:29;;;;;;;;;;;30.40;63.00;;;;;;5083992;28;19924;-86
2022/09/12 10:02:58;;;;;;;;;;;30.10;64.60;;;;;;5065747;28;20674;-86
2022/09/12 10:05:23;;;;;;;;;;;29.90;65.90;;;;;;5063457;28;20479;-85
2022/09/12 10:07:49;;;;;;;;;;;29.70;65.70;;;;;;5063428;28;19960;-86
2022/09/12 10:10:16;;;;;;;;;;;30.00;69.30;;;;;;5063561;28;19917;-86
2022/09/12 10:12:42;;;;;;;;;;;30.00;67.00;;;;;;5055315;28;19917;-86
2022/09/12 10:15:21;;;;;;;;;;;30.00;66.30;;;;;;5050777;28;19917;-85
2022/09/12 10:17:48;;;;;;;;;;;30.10;66.40;;;;;;5042813;28;19913;-86
2022/09/12 10:20:34;;;;;;;;;;;30.00;67.50;;;;;;5043174;28;19913;-84
2022/09/12 10:23:00;;;;;;;;;;;29.80;66.50;;;;;;5041810;28;20354;-85
2022/09/12 10:25:26;;;;;;;;;;;29.90;67.90;;;;;;5043895;28;19944;-85
2022/09/12 10:27:55;;;;;;;;;;;29.90;67.20;;;;;;5043349;28;20393;-86
2022/09/12 10:30:26;;;;;;;;;;;29.90;67.50;;;;;;5043651;28;19999;-87
2022/09/12 10:32:55;;;;;;;;;;;29.60;67.80;;;;;;5043378;28;19991;-87
2022/09/12 10:35:22;;;;;;;;;;;29.50;67.60;;;;;;5044823;28;19919;-85
2022/09/12 10:37:51;;;;;;;;;;;29.30;70.10;;;;;;5048707;28;19916;-87
2022/09/12 10:40:22;;;;;;;;;;;29.50;69.50;;;;;;5078446;28;20383;-86
2022/09/12 10:42:49;;;;;;;;;;;29.60;68.30;;;;;;5070705;28;20421;-86
2022/09/12 10:45:19;;;;;;;;;;;29.70;68.40;;;;;;5076273;28;19925;-87
2022/09/12 10:47:45;;;;;;;;;;;29.80;70.90;;;;;;5065589;28;19916;-86
2022/09/12 10:50:24;;;;;;;;;;;29.70;69.60;;;;;;5083091;28;20419;-86
2022/09/12 10:52:50;;;;;;;;;;;29.80;69.60;;;;;;5083224;28;19912;-86
2022/09/12 10:55:16;;;;;;;;;;;30.00;68.50;;;;;;5071217;28;19916;-86
2022/09/12 10:57:50;;;;;;;;;;;29.90;64.80;;;;;;5082897;28;20303;-86
2022/09/12 11:00:18;;;;;;;;;;;30.10;70.70;;;;;;5078594;28;19924;-87
2022/09/12 11:02:49;;;;;;;;;;;30.00;67.60;;;;;;5074894;28;20332;-86
2022/09/12 11:05:30;;;;;;;;;;;30.10;68.70;;;;;;5066497;28;19927;-87
2022/09/12 11:08:01;;;;;;;;;;;30.00;68.40;;;;;;5066606;28;19950;-87
2022/09/12 11:10:40;;;;;;;;;;;30.00;69.80;;;;;;5066792;28;20003;-87
2022/09/12 11:13:16;;;;;;;;;;;30.10;69.00;;;;;;5077071;28;20026;-87
2022/09/12 11:15:44;;;;;;;;;;;30.10;67.00;;;;;;5056024;28;19919;-86
2022/09/12 11:18:18;;;;;;;;;;;30.10;67.60;;;;;;5065846;28;19913;-87
2022/09/12 11:20:52;;;;;;;;;;;30.00;68.40;;;;;;5066771;28;19940;-87
2022/09/12 11:23:44;;;;;;;;;;;30.00;68.30;;;;;;5066545;28;19912;-87
2022/09/12 11:26:42;;;;;;;;;;;30.30;66.80;;;;;;5063363;28;20010;-86
2022/09/12 11:29:25;;;;;;;;;;;30.30;66.20;;;;;;5003802;28;19933;-86
2022/09/12 11:32:02;;;;;;;;;;;30.40;66.00;;;;;;4985148;28;19921;-86
2022/09/12 11:34:38;;;;;;;;;;;30.30;63.60;;;;;;4964869;28;19921;-86
2022/09/12 11:37:19;;;;;;;;;;;30.20;65.80;;;;;;4972190;28;19918;-87
2022/09/12 11:39:45;;;;;;;;;;;30.30;61.30;;;;;;4968409;28;20702;-87
2022/09/12 11:42:31;;;;;;;;;;;30.30;65.20;;;;;;4983826;28;19996;-87
2022/09/12 11:45:09;;;;;;;;;;;30.10;65.60;;;;;;4978210;28;19926;-86
2022/09/12 11:47:35;;;;;;;;;;;30.40;59.70;;;;;;4964237;28;19910;-86
2022/09/12 11:50:04;;;;;;;;;;;30.60;55.30;;;;;;4968334;28;19918;-87
2022/09/12 11:52:35;;;;;;;;;;;30.30;59.50;;;;;;4964324;28;19918;-86
2022/09/12 11:55:10;;;;;;;;;;;30.40;55.70;;;;;;4963984;28;19921;-86
2022/09/12 11:57:40;;;;;;;;;;;30.40;54.90;;;;;;4965638;28;19925;-87
2022/09/12 12:00:13;;;;;;;;;;;30.90;53.70;;;;;;4971681;28;19976;-87
2022/09/12 12:02:46;;;;;;;;;;;30.50;55.00;;;;;;4989285;28;19917;-86
2022/09/12 12:05:20;;;;;;;;;;;30.40;55.00;;;;;;5031058;28;19920;-87
2022/09/12 12:07:53;;;;;;;;;;;30.30;55.00;;;;;;5045586;28;19913;-86
2022/09/12 12:10:28;;;;;;;;;;;30.30;57.60;;;;;;5045672;28;19920;-86
2022/09/12 12:12:55;;;;;;;;;;;30.30;55.70;;;;;;5074495;28;19916;-87
2022/09/12 12:15:21;;;;;;;;;;;30.30;54.70;;;;;;5085814;28;19912;-86
2022/09/12 12:18:07;;;;;;;;;;;30.30;53.90;;;;;;5085011;28;19985;-87
2022/09/12 12:20:33;;;;;;;;;;;30.50;55.40;;;;;;5085150;28;19912;-87
2022/09/12 12:22:58;;;;;;;;;;;30.30;57.50;;;;;;5085671;28;19912;-86
2022/09/12 12:25:44;;;;;;;;;;;30.40;56.30;;;;;;5083379;28;20002;-86
2022/09/12 12:28:10;;;;;;;;;;;30.40;55.00;;;;;;5065748;27;19917;-86
2022/09/12 12:30:55;;;;;;;;;;;30.70;55.40;;;;;;5072014;28;20229;-87
2022/09/12 12:33:20;;;;;;;;;;;30.70;57.20;;;;;;5073420;28;19920;-86
2022/09/12 12:36:06;;;;;;;;;;;30.70;58.10;;;;;;5064830;28;19912;-86
2022/09/12 12:38:32;;;;;;;;;;;31.10;54.70;;;;;;5064643;28;19990;-85
2022/09/12 12:41:15;;;;;;;;;;;31.20;53.40;;;;;;5071039;28;19920;-85
2022/09/12 12:43:42;;;;;;;;;;;31.10;54.30;;;;;;5061833;28;20397;-86
2022/09/12 12:46:09;;;;;;;;;;;31.00;54.40;;;;;;5063234;28;19916;-86
2022/09/12 12:48:42;;;;;;;;;;;30.90;56.30;;;;;;5065121;28;20027;-86
2022/09/12 12:51:34;;;;;;;;;;;31.00;54.80;;;;;;5062955;28;20734;-86
2022/09/12 12:54:00;;;;;;;;;;;31.40;58.20;;;;;;5021465;28;19960;-85
2022/09/12 12:56:33;;;;;;;;;;;31.20;52.40;;;;;;5021538;28;19913;-86
2022/09/12 12:59:01;;;;;;;;;;;31.10;57.20;;;;;;5020798;28;20465;-85
2022/09/12 13:01:27;;;;;;;;;;;31.30;57.20;;;;;;5020910;28;19955;-85
2022/09/12 13:04:00;;;;;;;;;;;31.10;57.50;;;;;;5004085;28;19925;-85
2022/09/12 13:06:39;;;;;;;;;;;31.40;54.30;;;;;;5021270;28;19951;-86
2022/09/12 13:09:17;;;;;;;;;;;31.70;53.20;;;;;;5037795;28;19913;-85
2022/09/12 13:11:43;;;;;;;;;;;31.40;54.40;;;;;;5021075;28;19948;-86
2022/09/12 13:14:28;;;;;;;;;;;31.00;56.90;;;;;;5037731;28;20040;-85
2022/09/12 13:16:57;;;;;;;;;;;30.90;52.20;;;;;;5005005;28;19964;-86
2022/09/12 13:19:30;;;;;;;;;;;31.00;53.80;;;;;;5021631;28;19913;-85
2022/09/12 13:22:00;;;;;;;;;;;31.00;51.80;;;;;;5021092;28;20420;-86
2022/09/12 13:24:25;;;;;;;;;;;31.40;52.40;;;;;;5020444;28;20509;-86
2022/09/12 13:26:52;;;;;;;;;;;31.30;52.40;;;;;;5020902;28;19920;-85
2022/09/12 13:29:21;;;;;;;;;;;31.10;52.10;;;;;;5030900;28;20383;-85
2022/09/12 13:31:50;;;;;;;;;;;31.10;52.30;;;;;;5054959;28;19955;-85
2022/09/12 13:34:21;;;;;;;;;;;31.00;56.90;;;;;;5081194;28;19916;-85
2022/09/12 13:36:55;;;;;;;;;;;31.00;54.90;;;;;;5080791;28;20676;-85
2022/09/12 13:39:28;;;;;;;;;;;31.30;50.60;;;;;;5072137;28;19924;-87
2022/09/12 13:42:12;;;;;;;;;;;31.30;52.40;;;;;;5077306;28;19952;-86
2022/09/12 13:44:47;;;;;;;;;;;31.10;51.00;;;;;;5063590;28;19931;-86
2022/09/12 13:47:22;;;;;;;;;;;31.10;55.30;;;;;;5063461;28;19990;-86
2022/09/12 13:49:48;;;;;;;;;;;31.30;53.70;;;;;;5064005;28;19909;-86
2022/09/12 13:52:31;;;;;;;;;;;31.60;51.90;;;;;;5062673;28;20404;-86
2022/09/12 13:54:57;;;;;;;;;;;31.70;54.10;;;;;;5063977;28;19913;-86
2022/09/12 13:57:36;;;;;;;;;;;31.30;52.10;;;;;;5063702;28;19935;-85
2022/09/12 14:00:19;;;;;;;;;;;31.50;54.80;;;;;;5064145;28;20736;-86
2022/09/12 14:02:45;;;;;;;;;;;31.40;51.50;;;;;;5051967;28;19916;-86
2022/09/12 14:05:18;;;;;;;;;;;31.30;52.20;;;;;;5047493;28;20456;-87
2022/09/12 14:07:54;;;;;;;;;;;31.40;52.30;;;;;;5059558;28;19920;-87
2022/09/12 14:10:21;;;;;;;;;;;31.30;52.40;;;;;;5025388;28;19917;-86
2022/09/12 14:12:49;;;;;;;;;;;31.10;52.90;;;;;;5043863;28;19924;-85
2022/09/12 14:15:18;;;;;;;;;;;31.00;53.30;;;;;;5042826;28;19913;-86
2022/09/12 14:17:50;;;;;;;;;;;31.10;54.10;;;;;;5043039;28;19916;-86
2022/09/12 14:20:17;;;;;;;;;;;31.10;52.70;;;;;;5025908;28;20007;-86
2022/09/12 14:22:43;;;;;;;;;;;31.00;53.50;;;;;;5058484;28;20376;-86
2022/09/12 14:25:16;;;;;;;;;;;31.20;54.60;;;;;;5063775;28;20404;-85
2022/09/12 14:27:48;;;;;;;;;;;30.90;54.10;;;;;;5061934;28;19966;-85
2022/09/12 14:30:34;;;;;;;;;;;30.70;53.40;;;;;;5042666;28;19913;-86